createdAt,value
2022-12-03T00:03:55.392Z,26.80
2022-12-03T00:07:56.645Z,20.30
2022-12-03T00:11:57.845Z,25.33
2022-12-03T00:15:58.992Z,23.77
2022-12-03T00:20:00.159Z,26.70
2022-12-03T00:24:01.354Z,24.60
2022-12-03T00:28:02.553Z,21.90
2022-12-03T00:32:03.883Z,23.30
2022-12-03T00:36:05.754Z,25.63
2022-12-03T00:40:08.046Z,21.10
2022-12-03T00:44:11.107Z,24.67
2022-12-03T00:48:12.171Z,26.73
2022-12-03T00:52:13.342Z,25.67
2022-12-03T00:56:14.739Z,25.87
2022-12-03T01:00:16.266Z,26.13
2022-12-03T01:04:17.431Z,23.20
2022-12-03T01:08:18.731Z,24.83
2022-12-03T01:12:19.888Z,25.07
2022-12-03T01:16:21.209Z,21.97
2022-12-03T01:20:22.332Z,22.57
2022-12-03T01:24:23.510Z,24.17
2022-12-03T01:28:24.578Z,27.87
2022-12-03T01:32:25.754Z,23.37
2022-12-03T01:36:26.926Z,28.10
2022-12-03T01:40:28.255Z,25.93
2022-12-03T01:44:34.445Z,29.73
2022-12-03T01:48:37.924Z,27.77
2022-12-03T01:52:40.199Z,28.67
2022-12-03T01:56:41.391Z,27.87
2022-12-03T02:00:42.563Z,26.00
2022-12-03T02:04:43.878Z,27.73
2022-12-03T02:08:46.356Z,26.63
2022-12-03T02:13:00.404Z,29.67
2022-12-03T02:17:01.558Z,28.63
2022-12-03T02:21:15.213Z,26.47
2022-12-03T02:25:26.144Z,32.13
2022-12-03T02:29:27.322Z,26.83
2022-12-03T02:33:29.394Z,26.53
2022-12-03T02:37:33.963Z,26.57
2022-12-03T02:41:53.518Z,27.13
2022-12-03T02:45:57.800Z,29.50
2022-12-03T02:49:59.850Z,30.37
2022-12-03T02:54:01.241Z,28.03
2022-12-03T02:58:03.831Z,30.43
2022-12-03T03:02:05.145Z,27.50
2022-12-03T03:06:08.064Z,29.10
2022-12-03T03:10:12.946Z,27.17
2022-12-03T03:14:14.119Z,25.20
2022-12-03T03:18:15.990Z,29.07
2022-12-03T03:22:17.959Z,27.40
2022-12-03T03:26:19.171Z,30.40
2022-12-03T03:30:20.346Z,27.50
2022-12-03T03:34:21.424Z,29.07
2022-12-03T03:38:23.577Z,26.13
2022-12-03T03:42:24.958Z,29.60
2022-12-03T03:46:27.395Z,25.07
2022-12-03T03:50:30.826Z,26.20
2022-12-03T03:54:32.402Z,24.13
2022-12-03T03:58:34.673Z,27.67
2022-12-03T04:02:36.034Z,28.43
2022-12-03T04:06:37.236Z,27.63
2022-12-03T04:10:56.644Z,25.73
2022-12-03T04:14:58.148Z,25.17
2022-12-03T04:18:59.314Z,24.00
2022-12-03T04:23:00.752Z,22.17
2022-12-03T04:27:20.367Z,26.63
2022-12-03T04:31:39.919Z,24.33
2022-12-03T04:35:44.138Z,22.77
2022-12-03T04:39:45.628Z,24.20
2022-12-03T04:44:05.336Z,21.93
2022-12-03T04:48:06.523Z,22.40
2022-12-03T04:52:08.987Z,26.70
2022-12-03T04:56:12.063Z,19.80
2022-12-03T05:00:14.752Z,18.77
2022-12-03T05:04:18.462Z,23.13
2022-12-03T05:08:19.564Z,22.57
2022-12-03T05:12:20.697Z,23.33
2022-12-03T05:16:21.963Z,18.90
2022-12-03T05:20:41.218Z,23.57
2022-12-03T05:24:42.390Z,23.67
2022-12-03T05:28:43.670Z,24.40
2022-12-03T05:32:44.755Z,19.87
2022-12-03T05:36:45.940Z,21.97
2022-12-03T05:40:46.990Z,27.43
2022-12-03T05:44:48.165Z,19.70
2022-12-03T05:48:49.315Z,22.50
2022-12-03T05:52:50.612Z,19.27
2022-12-03T05:56:51.792Z,22.50
2022-12-03T06:00:52.857Z,19.57
2022-12-03T06:04:54.293Z,22.50
2022-12-03T06:08:55.617Z,18.77
2022-12-03T06:12:56.705Z,16.90
2022-12-03T06:16:57.905Z,17.30
2022-12-03T06:20:59.068Z,17.13
2022-12-03T06:25:06.217Z,17.53
2022-12-03T06:29:03.146Z,16.47
2022-12-03T06:33:07.059Z,18.60
2022-12-03T06:37:08.280Z,17.10
2022-12-03T06:41:09.382Z,16.67
2022-12-03T06:45:11.387Z,14.97
2022-12-03T06:49:12.582Z,21.70
2022-12-03T06:53:13.679Z,17.27
2022-12-03T06:57:15.571Z,17.63
2022-12-03T07:01:16.828Z,20.90
2022-12-03T07:05:18.203Z,19.83
2022-12-03T07:09:19.456Z,18.60
2022-12-03T07:13:20.942Z,18.93
2022-12-03T07:17:22.064Z,17.33
2022-12-03T07:21:23.143Z,17.97
2022-12-03T07:25:24.233Z,16.80
2022-12-03T07:29:25.437Z,20.63
2022-12-03T07:33:26.611Z,21.27
2022-12-03T07:37:27.725Z,20.23
2022-12-03T07:41:28.924Z,19.67
2022-12-03T07:45:30.220Z,20.10
2022-12-03T07:49:32.106Z,21.60
2022-12-03T07:53:35.203Z,22.37
2022-12-03T07:57:36.389Z,19.87
2022-12-03T08:01:37.809Z,19.70
2022-12-03T08:05:39.080Z,19.33
2022-12-03T08:09:40.355Z,20.07
2022-12-03T08:13:41.930Z,18.47
2022-12-03T08:17:45.428Z,24.63
2022-12-03T08:21:46.494Z,19.33
2022-12-03T08:25:49.682Z,19.10
2022-12-03T08:29:54.661Z,18.90
2022-12-03T08:33:59.651Z,20.10
2022-12-03T08:38:07.596Z,19.00
2022-12-03T08:42:43.387Z,18.93
2022-12-03T08:46:44.578Z,20.67
2022-12-03T08:50:46.154Z,22.43
2022-12-03T08:54:53.502Z,23.33
2022-12-03T08:59:01.700Z,26.87
2022-12-03T09:03:04.582Z,24.80
2022-12-03T09:07:05.674Z,24.83
2022-12-03T09:11:06.938Z,24.17
2022-12-03T09:15:08.377Z,25.90
2022-12-03T09:19:09.437Z,24.63
2022-12-03T09:23:10.521Z,25.97
2022-12-03T09:27:11.682Z,24.10
2022-12-03T09:31:12.844Z,24.97
2022-12-03T09:35:14.129Z,30.90
2022-12-03T09:39:15.216Z,25.77
2022-12-03T09:43:17.299Z,25.53
2022-12-03T09:47:18.758Z,33.93
2022-12-03T09:51:19.814Z,22.30
2022-12-03T09:55:24.432Z,22.30
2022-12-03T09:59:33.950Z,32.80
2022-12-03T10:03:36.457Z,34.43
2022-12-03T10:07:38.033Z,30.87
2022-12-03T10:11:39.868Z,24.30
2022-12-03T10:15:41.041Z,26.43
2022-12-03T10:19:42.315Z,29.20
2022-12-03T10:23:46.468Z,29.00
2022-12-03T10:28:03.385Z,28.27
2022-12-03T10:32:11.133Z,27.80
2022-12-03T10:36:24.023Z,32.90
2022-12-03T10:40:28.564Z,25.73
2022-12-03T10:44:29.924Z,31.77
2022-12-03T10:48:31.089Z,34.83
2022-12-03T10:52:32.356Z,32.43
2022-12-03T10:56:33.526Z,25.70
2022-12-03T11:00:35.027Z,28.47
2022-12-03T11:04:36.298Z,25.30
2022-12-03T11:08:37.522Z,29.97
2022-12-03T11:12:38.666Z,27.17
2022-12-03T11:16:43.652Z,30.70
2022-12-03T11:20:48.618Z,28.70
2022-12-03T11:24:59.076Z,29.13
2022-12-03T11:29:00.259Z,32.33
2022-12-03T11:33:03.698Z,29.87
2022-12-03T11:37:14.722Z,32.43
2022-12-03T11:41:25.053Z,31.00
2022-12-03T11:45:30.037Z,29.70
2022-12-03T11:49:34.807Z,27.23
2022-12-03T11:53:35.887Z,28.53
2022-12-03T11:57:38.975Z,29.87
2022-12-03T12:01:40.745Z,32.30
2022-12-03T12:05:41.916Z,25.80
2022-12-03T12:09:54.427Z,29.53
2022-12-03T12:13:58.375Z,29.90
2022-12-03T12:18:37.067Z,31.37
2022-12-03T12:22:38.643Z,25.33
2022-12-03T12:26:43.528Z,27.47
2022-12-03T12:30:44.582Z,28.83
2022-12-03T12:34:48.255Z,26.90
2022-12-03T12:38:49.447Z,30.20
2022-12-03T12:42:59.177Z,30.47
2022-12-03T12:47:03.680Z,30.37
2022-12-03T12:51:13.810Z,30.00
2022-12-03T12:55:16.687Z,33.23
2022-12-03T12:59:20.195Z,27.07
2022-12-03T13:03:25.085Z,33.60
2022-12-03T13:07:26.286Z,31.97
2022-12-03T13:11:41.108Z,29.63
2022-12-03T13:15:52.413Z,31.17
2022-12-03T13:20:03.628Z,31.53
2022-12-03T13:24:04.783Z,28.83
2022-12-03T13:28:07.375Z,29.50
2022-12-03T13:32:15.456Z,28.23
2022-12-03T13:36:19.450Z,35.00
2022-12-03T13:40:27.339Z,33.60
2022-12-03T13:44:31.417Z,33.70
2022-12-03T13:48:35.029Z,31.87
2022-12-03T13:52:36.291Z,31.17
2022-12-03T13:56:37.380Z,34.13
2022-12-03T14:00:38.607Z,35.40
2022-12-03T14:04:40.203Z,35.00
2022-12-03T14:08:41.356Z,35.57
2022-12-03T14:12:42.428Z,29.60
2022-12-03T14:16:43.560Z,34.90
2022-12-03T14:20:44.629Z,33.67
2022-12-03T14:24:45.812Z,47.47
2022-12-03T14:28:47.019Z,37.13
2022-12-03T14:32:48.198Z,36.00
2022-12-03T14:36:49.395Z,35.47
2022-12-03T14:40:50.481Z,32.50
2022-12-03T14:44:51.668Z,31.60
2022-12-03T14:48:52.752Z,35.53
2022-12-03T14:52:53.953Z,31.83
2022-12-03T14:56:55.141Z,37.00
2022-12-03T15:00:56.241Z,53.37
2022-12-03T15:04:57.378Z,45.60
2022-12-03T15:08:58.550Z,40.90
2022-12-03T15:12:59.853Z,37.43
2022-12-03T15:17:01.071Z,34.63
2022-12-03T15:21:02.225Z,35.83
2022-12-03T15:25:03.681Z,37.53
2022-12-03T15:29:04.774Z,34.03
2022-12-03T15:33:05.833Z,33.67
2022-12-03T15:37:08.420Z,37.53
2022-12-03T15:41:23.551Z,39.23
2022-12-03T15:45:24.723Z,38.63
2022-12-03T15:49:25.899Z,37.73
2022-12-03T15:53:26.965Z,41.13
2022-12-03T15:57:28.966Z,43.50
2022-12-03T16:01:30.198Z,42.53
2022-12-03T16:05:31.639Z,34.03
2022-12-03T16:09:32.792Z,43.67
2022-12-03T16:13:33.890Z,43.13
2022-12-03T16:17:34.971Z,37.27
2022-12-03T16:21:36.258Z,35.20
2022-12-03T16:25:37.515Z,32.87
2022-12-03T16:29:38.610Z,37.00
2022-12-03T16:33:39.697Z,36.20
2022-12-03T16:37:40.841Z,34.53
2022-12-03T16:41:42.027Z,40.20
2022-12-03T16:45:57.170Z,34.80
2022-12-03T16:49:58.354Z,37.23
2022-12-03T16:53:59.500Z,38.00
2022-12-03T16:58:01.185Z,39.70
2022-12-03T17:02:02.625Z,31.77
2022-12-03T17:06:04.218Z,35.43
2022-12-03T17:10:06.248Z,40.80
2022-12-03T17:14:07.394Z,36.93
2022-12-03T17:18:08.982Z,35.37
2022-12-03T17:22:10.156Z,41.17
2022-12-03T17:26:11.260Z,42.20
2022-12-03T17:30:13.091Z,32.27
2022-12-03T17:34:14.272Z,38.30
2022-12-03T17:38:17.015Z,41.43
2022-12-03T17:42:18.391Z,30.93
2022-12-03T17:46:19.721Z,43.30
2022-12-03T17:50:20.940Z,32.30
2022-12-03T17:54:22.108Z,33.23
2022-12-03T17:58:23.201Z,30.23
2022-12-03T18:02:24.284Z,38.40
2022-12-03T18:06:25.646Z,35.97
2022-12-03T18:10:26.835Z,35.10
2022-12-03T18:14:27.915Z,32.97
2022-12-03T18:18:29.105Z,32.30
2022-12-03T18:22:30.890Z,38.07
2022-12-03T18:26:32.268Z,31.97
2022-12-03T18:30:34.237Z,33.83
2022-12-03T18:34:35.325Z,34.30
2022-12-03T18:38:36.396Z,30.60
2022-12-03T18:42:37.490Z,35.37
2022-12-03T18:46:52.897Z,37.97
2022-12-03T18:50:42.657Z,34.20
2022-12-03T18:54:44.442Z,32.93
2022-12-03T18:58:45.597Z,35.67
2022-12-03T19:03:02.397Z,30.50
2022-12-03T19:06:49.638Z,30.87
2022-12-03T19:10:56.333Z,34.27
2022-12-03T19:14:57.525Z,28.40
2022-12-03T19:18:58.607Z,34.30
2022-12-03T19:22:59.678Z,30.27
2022-12-03T19:27:00.775Z,30.30
2022-12-03T19:31:05.123Z,31.47
2022-12-03T19:35:07.394Z,35.57
2022-12-03T19:39:08.546Z,35.23
2022-12-03T19:43:09.726Z,30.47
2022-12-03T19:47:10.832Z,32.57
2022-12-03T19:51:32.981Z,32.17
2022-12-03T19:55:17.898Z,30.87
2022-12-03T19:59:19.101Z,30.37
2022-12-03T20:03:20.443Z,31.50
2022-12-03T20:07:21.542Z,34.20
2022-12-03T20:11:25.959Z,28.90
2022-12-03T20:15:27.518Z,31.10
2022-12-03T20:19:28.694Z,33.13
2022-12-03T20:23:29.771Z,28.73
2022-12-03T20:27:32.179Z,31.17
2022-12-03T20:31:33.540Z,31.60
2022-12-03T20:35:34.868Z,30.07
2022-12-03T20:39:36.039Z,27.00
2022-12-03T20:43:37.706Z,26.13
2022-12-03T20:47:38.801Z,33.70
2022-12-03T20:51:41.671Z,24.67
2022-12-03T20:55:42.842Z,28.03
2022-12-03T20:59:44.068Z,26.17
2022-12-03T21:03:45.951Z,27.23
2022-12-03T21:07:48.129Z,27.47
2022-12-03T21:11:49.244Z,25.83
2022-12-03T21:15:54.116Z,24.57
2022-12-03T21:19:55.389Z,27.07
2022-12-03T21:23:57.084Z,25.90
2022-12-03T21:27:58.238Z,29.73
2022-12-03T21:31:59.343Z,28.03
2022-12-03T21:36:01.231Z,22.00
2022-12-03T21:40:02.596Z,22.70
2022-12-03T21:44:03.922Z,23.47
2022-12-03T21:48:05.590Z,18.23
2022-12-03T21:52:06.769Z,21.53
2022-12-03T21:56:11.667Z,19.17
2022-12-03T22:00:14.274Z,22.70
2022-12-03T22:04:15.567Z,24.40
2022-12-03T22:08:17.355Z,21.53
2022-12-03T22:12:18.519Z,19.70
2022-12-03T22:16:21.167Z,16.97
2022-12-03T22:20:22.497Z,18.67
2022-12-03T22:24:23.601Z,23.80
2022-12-03T22:28:24.865Z,19.27
2022-12-03T22:32:26.217Z,20.23
2022-12-03T22:36:27.398Z,18.77
2022-12-03T22:40:28.674Z,21.67
2022-12-03T22:44:30.180Z,18.67
2022-12-03T22:48:35.034Z,20.77
2022-12-03T22:52:36.220Z,16.53
2022-12-03T22:56:37.877Z,16.40
2022-12-03T23:00:40.456Z,19.10
2022-12-03T23:04:41.619Z,19.23
2022-12-03T23:08:42.715Z,19.33
2022-12-03T23:12:43.870Z,18.07
2022-12-03T23:16:45.049Z,19.00
2022-12-03T23:20:48.632Z,18.53
2022-12-03T23:24:49.783Z,19.93
2022-12-03T23:28:50.863Z,20.00
2022-12-03T23:32:51.936Z,19.60
2022-12-03T23:36:53.044Z,21.23
2022-12-03T23:40:54.231Z,22.27
2022-12-03T23:44:55.338Z,21.30
2022-12-03T23:48:58.469Z,20.00
2022-12-03T23:52:59.666Z,21.97
2022-12-03T23:57:00.787Z,18.73
